sensor_id;sensor_type;location;lat;lon;timestamp;pressure;altitude;pressure_sealevel;temperature;humidity
11487;BME280;10510;47.942;9.442;2023-06-10T00:01:27;94203.75;;;14.63;100.00
11487;BME280;10510;47.942;9.442;2023-06-10T00:03:28;94195.50;;;14.59;100.00
11487;BME280;10510;47.942;9.442;2023-06-10T00:05:29;94198.13;;;14.59;100.00
11487;BME280;10510;47.942;9.442;2023-06-10T00:07:32;94198.91;;;14.60;100.00
11487;BME280;10510;47.942;9.442;2023-06-10T00:09:32;94190.06;;;14.54;100.00
11487;BME280;10510;47.942;9.442;2023-06-10T00:11:32;94193.19;;;14.44;100.00
11487;BME280;10510;47.942;9.442;2023-06-10T00:13:32;94194.69;;;14.34;100.00
11487;BME280;10510;47.942;9.442;2023-06-10T00:15:33;94198.03;;;14.22;100.00
11487;BME280;10510;47.942;9.442;2023-06-10T00:17:33;94201.59;;;14.09;100.00
11487;BME280;10510;47.942;9.442;2023-06-10T00:19:33;94201.84;;;14.01;100.00
11487;BME280;10510;47.942;9.442;2023-06-10T00:21:35;94198.09;;;13.91;100.00
11487;BME280;10510;47.942;9.442;2023-06-10T00:23:40;94195.75;;;13.82;100.00
11487;BME280;10510;47.942;9.442;2023-06-10T00:25:41;94196.63;;;13.70;100.00
11487;BME280;10510;47.942;9.442;2023-06-10T00:27:41;94202.56;;;13.58;100.00
11487;BME280;10510;47.942;9.442;2023-06-10T00:29:41;94200.56;;;13.54;100.00
11487;BME280;10510;47.942;9.442;2023-06-10T00:31:43;94197.34;;;13.52;100.00
11487;BME280;10510;47.942;9.442;2023-06-10T00:33:44;94193.75;;;13.46;100.00
11487;BME280;10510;47.942;9.442;2023-06-10T00:35:44;94186.94;;;13.38;100.00
11487;BME280;10510;47.942;9.442;2023-06-10T00:37:44;94189.16;;;13.35;100.00
11487;BME280;10510;47.942;9.442;2023-06-10T00:39:45;94195.63;;;13.32;100.00
11487;BME280;10510;47.942;9.442;2023-06-10T00:41:45;94200.31;;;13.30;100.00
11487;BME280;10510;47.942;9.442;2023-06-10T00:43:45;94190.63;;;13.24;100.00
11487;BME280;10510;47.942;9.442;2023-06-10T00:45:46;94191.88;;;13.15;100.00
11487;BME280;10510;47.942;9.442;2023-06-10T00:47:46;94195.34;;;13.09;100.00
11487;BME280;10510;47.942;9.442;2023-06-10T00:49:47;94185.06;;;13.07;100.00
11487;BME280;10510;47.942;9.442;2023-06-10T00:51:48;94189.50;;;13.07;100.00
11487;BME280;10510;47.942;9.442;2023-06-10T00:53:48;94190.72;;;13.04;100.00
11487;BME280;10510;47.942;9.442;2023-06-10T00:55:49;94187.09;;;12.99;100.00
11487;BME280;10510;47.942;9.442;2023-06-10T00:57:50;94183.50;;;12.93;100.00
11487;BME280;10510;47.942;9.442;2023-06-10T00:59:51;94188.56;;;12.88;100.00
11487;BME280;10510;47.942;9.442;2023-06-10T01:01:52;94194.81;;;12.87;100.00
11487;BME280;10510;47.942;9.442;2023-06-10T01:03:52;94194.81;;;12.87;100.00
11487;BME280;10510;47.942;9.442;2023-06-10T01:06:00;94194.81;;;12.87;100.00
11487;BME280;10510;47.942;9.442;2023-06-10T01:08:25;94200.47;;;12.84;100.00
11487;BME280;10510;47.942;9.442;2023-06-10T01:10:33;94199.31;;;12.80;100.00
11487;BME280;10510;47.942;9.442;2023-06-10T01:12:39;94193.84;;;12.81;100.00
11487;BME280;10510;47.942;9.442;2023-06-10T01:14:41;94189.00;;;12.78;100.00
11487;BME280;10510;47.942;9.442;2023-06-10T01:16:45;94197.66;;;12.79;100.00
11487;BME280;10510;47.942;9.442;2023-06-10T01:18:45;94189.00;;;12.78;100.00
11487;BME280;10510;47.942;9.442;2023-06-10T01:20:46;94191.84;;;12.77;100.00
11487;BME280;10510;47.942;9.442;2023-06-10T01:22:47;94193.44;;;12.78;100.00
11487;BME280;10510;47.942;9.442;2023-06-10T01:24:48;94196.03;;;12.84;100.00
11487;BME280;10510;47.942;9.442;2023-06-10T01:26:51;94191.59;;;12.85;100.00
11487;BME280;10510;47.942;9.442;2023-06-10T01:29:57;94193.44;;;12.78;100.00
11487;BME280;10510;47.942;9.442;2023-06-10T01:31:48;94194.28;;;12.71;100.00
11487;BME280;10510;47.942;9.442;2023-06-10T01:33:52;94192.25;;;12.67;100.00
11487;BME280;10510;47.942;9.442;2023-06-10T01:35:52;94192.09;;;12.62;100.00
11487;BME280;10510;47.942;9.442;2023-06-10T01:37:54;94191.69;;;12.58;100.00
11487;BME280;10510;47.942;9.442;2023-06-10T01:39:58;94195.34;;;12.50;100.00
11487;BME280;10510;47.942;9.442;2023-06-10T01:41:59;94194.13;;;12.46;100.00
11487;BME280;10510;47.942;9.442;2023-06-10T01:44:00;94197.97;;;12.44;100.00
11487;BME280;10510;47.942;9.442;2023-06-10T01:46:01;94197.38;;;12.42;100.00
11487;BME280;10510;47.942;9.442;2023-06-10T01:48:01;94193.53;;;12.38;100.00
11487;BME280;10510;47.942;9.442;2023-06-10T01:50:01;94199.81;;;12.37;100.00
11487;BME280;10510;47.942;9.442;2023-06-10T01:52:02;94203.44;;;12.36;100.00
11487;BME280;10510;47.942;9.442;2023-06-10T01:54:02;94198.22;;;12.36;100.00
11487;BME280;10510;47.942;9.442;2023-06-10T01:56:02;94202.22;;;12.32;100.00
11487;BME280;10510;47.942;9.442;2023-06-10T01:58:03;94197.41;;;12.28;100.00
11487;BME280;10510;47.942;9.442;2023-06-10T02:00:03;94197.00;;;12.25;100.00
11487;BME280;10510;47.942;9.442;2023-06-10T02:02:04;94207.06;;;12.28;100.00
11487;BME280;10510;47.942;9.442;2023-06-10T02:04:05;94204.25;;;12.23;100.00
11487;BME280;10510;47.942;9.442;2023-06-10T02:06:05;94201.03;;;12.14;100.00
11487;BME280;10510;47.942;9.442;2023-06-10T02:08:05;94205.28;;;12.09;100.00
11487;BME280;10510;47.942;9.442;2023-06-10T02:10:06;94205.50;;;12.07;100.00
11487;BME280;10510;47.942;9.442;2023-06-10T02:12:07;94203.47;;;12.09;100.00
11487;BME280;10510;47.942;9.442;2023-06-10T02:14:08;94213.56;;;12.12;100.00
11487;BME280;10510;47.942;9.442;2023-06-10T02:16:08;94205.88;;;12.11;100.00
11487;BME280;10510;47.942;9.442;2023-06-10T02:18:09;94198.63;;;12.13;100.00
11487;BME280;10510;47.942;9.442;2023-06-10T02:20:11;94210.31;;;12.10;100.00
11487;BME280;10510;47.942;9.442;2023-06-10T02:22:13;94208.72;;;12.09;100.00
11487;BME280;10510;47.942;9.442;2023-06-10T02:24:13;94211.75;;;12.06;100.00
11487;BME280;10510;47.942;9.442;2023-06-10T02:26:14;94211.75;;;12.06;100.00
11487;BME280;10510;47.942;9.442;2023-06-10T02:28:15;94206.88;;;12.16;100.00
11487;BME280;10510;47.942;9.442;2023-06-10T02:30:15;94204.25;;;12.30;100.00
11487;BME280;10510;47.942;9.442;2023-06-10T02:32:15;94211.88;;;12.38;100.00
11487;BME280;10510;47.942;9.442;2023-06-10T02:34:16;94205.03;;;12.50;100.00
11487;BME280;10510;47.942;9.442;2023-06-10T02:36:16;94215.47;;;12.63;100.00
11487;BME280;10510;47.942;9.442;2023-06-10T02:38:16;94209.41;;;12.69;100.00
11487;BME280;10510;47.942;9.442;2023-06-10T02:40:17;94207.41;;;12.65;100.00
11487;BME280;10510;47.942;9.442;2023-06-10T02:42:17;94214.06;;;12.61;100.00
11487;BME280;10510;47.942;9.442;2023-06-10T02:44:18;94211.25;;;12.62;100.00
11487;BME280;10510;47.942;9.442;2023-06-10T02:46:18;94215.09;;;12.60;100.00
11487;BME280;10510;47.942;9.442;2023-06-10T02:48:18;94226.38;;;12.60;100.00
11487;BME280;10510;47.942;9.442;2023-06-10T02:50:19;94227.97;;;12.61;100.00
11487;BME280;10510;47.942;9.442;2023-06-10T02:52:20;94220.72;;;12.63;100.00
11487;BME280;10510;47.942;9.442;2023-06-10T02:54:20;94220.91;;;12.68;100.00
11487;BME280;10510;47.942;9.442;2023-06-10T02:56:20;94221.09;;;12.67;100.00
11487;BME280;10510;47.942;9.442;2023-06-10T02:58:21;94224.53;;;12.61;100.00
11487;BME280;10510;47.942;9.442;2023-06-10T03:00:22;94231.03;;;12.52;100.00
11487;BME280;10510;47.942;9.442;2023-06-10T03:02:22;94228.63;;;12.50;100.00
11487;BME280;10510;47.942;9.442;2023-06-10T03:04:28;94226.81;;;12.50;100.00
11487;BME280;10510;47.942;9.442;2023-06-10T03:06:29;94230.00;;;12.53;100.00
11487;BME280;10510;47.942;9.442;2023-06-10T03:08:29;94220.75;;;12.57;100.00
11487;BME280;10510;47.942;9.442;2023-06-10T03:10:30;94229.41;;;12.57;100.00
11487;BME280;10510;47.942;9.442;2023-06-10T03:12:32;94233.44;;;12.60;100.00
11487;BME280;10510;47.942;9.442;2023-06-10T03:14:33;94234.66;;;12.57;100.00
11487;BME280;10510;47.942;9.442;2023-06-10T03:16:34;94222.75;;;12.55;100.00
11487;BME280;10510;47.942;9.442;2023-06-10T03:18:34;94230.63;;;12.55;100.00
11487;BME280;10510;47.942;9.442;2023-06-10T03:20:35;94234.66;;;12.57;100.00
11487;BME280;10510;47.942;9.442;2023-06-10T03:22:37;94238.28;;;12.56;100.00
11487;BME280;10510;47.942;9.442;2023-06-10T03:24:38;94236.88;;;12.54;100.00
11487;BME280;10510;47.942;9.442;2023-06-10T03:26:40;94235.06;;;12.54;100.00
11487;BME280;10510;47.942;9.442;2023-06-10T03:28:40;94230.00;;;12.53;100.00
11487;BME280;10510;47.942;9.442;2023-06-10T03:30:40;94234.66;;;12.50;100.00
11487;BME280;10510;47.942;9.442;2023-06-10T03:32:41;94235.25;;;12.53;100.00
11487;BME280;10510;47.942;9.442;2023-06-10T03:34:41;94235.66;;;12.56;100.00
11487;BME280;10510;47.942;9.442;2023-06-10T03:36:41;94227.59;;;12.58;100.00
11487;BME280;10510;47.942;9.442;2023-06-10T03:38:42;94229.59;;;12.62;100.00
11487;BME280;10510;47.942;9.442;2023-06-10T03:40:43;94242.69;;;12.69;100.00
11487;BME280;10510;47.942;9.442;2023-06-10T03:42:43;94240.44;;;12.72;100.00
11487;BME280;10510;47.942;9.442;2023-06-10T03:44:44;94245.28;;;12.76;100.00
11487;BME280;10510;47.942;9.442;2023-06-10T03:46:44;94242.06;;;12.80;100.00
11487;BME280;10510;47.942;9.442;2023-06-10T03:48:45;94238.78;;;12.85;100.00
11487;BME280;10510;47.942;9.442;2023-06-10T03:50:45;94248.47;;;12.91;100.00
11487;BME280;10510;47.942;9.442;2023-06-10T03:52:49;94238.38;;;12.94;100.00
11487;BME280;10510;47.942;9.442;2023-06-10T03:54:49;94245.03;;;12.97;100.00
11487;BME280;10510;47.942;9.442;2023-06-10T03:56:49;94250.06;;;12.99;100.00
11487;BME280;10510;47.942;9.442;2023-06-10T03:58:50;94256.91;;;13.00;100.00
11487;BME280;10510;47.942;9.442;2023-06-10T04:00:52;94252.50;;;13.00;100.00
11487;BME280;10510;47.942;9.442;2023-06-10T04:02:52;94251.44;;;13.08;100.00
11487;BME280;10510;47.942;9.442;2023-06-10T04:04:52;94241.13;;;13.13;100.00
11487;BME280;10510;47.942;9.442;2023-06-10T04:06:52;94252.44;;;13.13;100.00
11487;BME280;10510;47.942;9.442;2023-06-10T04:08:53;94261.69;;;13.16;100.00
11487;BME280;10510;47.942;9.442;2023-06-10T04:10:53;94258.84;;;13.17;100.00
11487;BME280;10510;47.942;9.442;2023-06-10T04:12:54;94249.38;;;13.16;100.00
11487;BME280;10510;47.942;9.442;2023-06-10T04:14:54;94252.00;;;13.16;100.00
11487;BME280;10510;47.942;9.442;2023-06-10T04:16:54;94248.34;;;13.17;100.00
11487;BME280;10510;47.942;9.442;2023-06-10T04:18:54;94258.06;;;13.17;100.00
11487;BME280;10510;47.942;9.442;2023-06-10T04:20:55;94251.41;;;13.21;100.00
11487;BME280;10510;47.942;9.442;2023-06-10T04:22:55;94252.59;;;13.25;100.00
11487;BME280;10510;47.942;9.442;2023-06-10T04:24:55;94256.81;;;13.33;100.00
11487;BME280;10510;47.942;9.442;2023-06-10T04:26:56;94255.56;;;13.42;100.00
11487;BME280;10510;47.942;9.442;2023-06-10T04:28:56;94256.56;;;13.48;100.00
11487;BME280;10510;47.942;9.442;2023-06-10T04:30:56;94255.72;;;13.54;100.00
11487;BME280;10510;47.942;9.442;2023-06-10T04:32:57;94256.09;;;13.57;100.00
11487;BME280;10510;47.942;9.442;2023-06-10T04:34:59;94256.03;;;13.64;100.00
11487;BME280;10510;47.942;9.442;2023-06-10T04:37:00;94256.59;;;13.73;100.00
11487;BME280;10510;47.942;9.442;2023-06-10T04:39:00;94267.28;;;13.78;100.00
11487;BME280;10510;47.942;9.442;2023-06-10T04:41:01;94259.78;;;13.81;100.00
11487;BME280;10510;47.942;9.442;2023-06-10T04:43:02;94259.94;;;13.86;100.00
11487;BME280;10510;47.942;9.442;2023-06-10T04:45:02;94257.69;;;13.90;100.00
11487;BME280;10510;47.942;9.442;2023-06-10T04:47:04;94270.41;;;13.93;100.00
11487;BME280;10510;47.942;9.442;2023-06-10T04:49:04;94264.28;;;13.99;100.00
11487;BME280;10510;47.942;9.442;2023-06-10T04:51:05;94270.16;;;14.01;100.00
11487;BME280;10510;47.942;9.442;2023-06-10T04:53:05;94267.47;;;14.08;100.00
11487;BME280;10510;47.942;9.442;2023-06-10T04:55:08;94270.28;;;14.13;100.00
11487;BME280;10510;47.942;9.442;2023-06-10T04:57:09;94268.00;;;14.17;100.00
11487;BME280;10510;47.942;9.442;2023-06-10T04:59:11;94273.44;;;14.22;100.00
11487;BME280;10510;47.942;9.442;2023-06-10T05:01:11;94271.19;;;14.25;100.00
11487;BME280;10510;47.942;9.442;2023-06-10T05:03:12;94264.69;;;14.28;100.00
11487;BME280;10510;47.942;9.442;2023-06-10T05:05:12;94266.47;;;14.34;100.00
11487;BME280;10510;47.942;9.442;2023-06-10T05:07:12;94264.00;;;14.39;100.00
11487;BME280;10510;47.942;9.442;2023-06-10T05:09:12;94271.63;;;14.47;100.00
11487;BME280;10510;47.942;9.442;2023-06-10T05:11:13;94278.44;;;14.55;100.00
11487;BME280;10510;47.942;9.442;2023-06-10T05:13:13;94269.47;;;14.63;100.00
11487;BME280;10510;47.942;9.442;2023-06-10T05:15:13;94272.03;;;14.69;100.00
11487;BME280;10510;47.942;9.442;2023-06-10T05:17:13;94275.19;;;14.78;100.00
11487;BME280;10510;47.942;9.442;2023-06-10T05:19:14;94275.34;;;14.83;100.00
11487;BME280;10510;47.942;9.442;2023-06-10T05:21:16;94282.56;;;14.88;100.00
11487;BME280;10510;47.942;9.442;2023-06-10T05:23:16;94280.91;;;14.93;100.00
11487;BME280;10510;47.942;9.442;2023-06-10T05:25:17;94279.22;;;14.99;100.00
11487;BME280;10510;47.942;9.442;2023-06-10T05:27:17;94278.16;;;15.07;100.00
11487;BME280;10510;47.942;9.442;2023-06-10T05:29:17;94277.63;;;15.16;100.00
11487;BME280;10510;47.942;9.442;2023-06-10T05:31:17;94284.44;;;15.24;100.00
11487;BME280;10510;47.942;9.442;2023-06-10T05:33:18;94280.69;;;15.32;100.00
11487;BME280;10510;47.942;9.442;2023-06-10T05:35:18;94279.59;;;15.39;100.00
11487;BME280;10510;47.942;9.442;2023-06-10T05:37:19;94285.94;;;15.50;100.00
11487;BME280;10510;47.942;9.442;2023-06-10T05:39:19;94284.03;;;15.57;100.00
11487;BME280;10510;47.942;9.442;2023-06-10T05:41:19;94288.63;;;15.62;100.00
11487;BME280;10510;47.942;9.442;2023-06-10T05:43:20;94286.34;;;15.65;100.00
11487;BME280;10510;47.942;9.442;2023-06-10T05:45:21;94281.25;;;15.71;100.00
11487;BME280;10510;47.942;9.442;2023-06-10T05:47:21;94280.91;;;15.79;100.00
11487;BME280;10510;47.942;9.442;2023-06-10T05:49:21;94274.69;;;15.92;100.00
11487;BME280;10510;47.942;9.442;2023-06-10T05:51:21;94280.06;;;16.39;100.00
11487;BME280;10510;47.942;9.442;2023-06-10T05:53:22;94279.25;;;17.61;100.00
11487;BME280;10510;47.942;9.442;2023-06-10T05:55:22;94286.69;;;17.64;100.00
11487;BME280;10510;47.942;9.442;2023-06-10T05:57:22;94285.19;;;17.80;100.00
11487;BME280;10510;47.942;9.442;2023-06-10T05:59:23;94291.28;;;19.10;100.00
11487;BME280;10510;47.942;9.442;2023-06-10T06:01:23;94289.13;;;19.95;100.00
11487;BME280;10510;47.942;9.442;2023-06-10T06:03:23;94286.16;;;20.46;100.00
11487;BME280;10510;47.942;9.442;2023-06-10T06:05:23;94291.75;;;20.81;100.00
11487;BME280;10510;47.942;9.442;2023-06-10T06:07:24;94284.50;;;21.14;100.00
11487;BME280;10510;47.942;9.442;2023-06-10T06:09:24;94299.53;;;21.36;100.00
11487;BME280;10510;47.942;9.442;2023-06-10T06:11:24;94290.63;;;21.62;100.00
11487;BME280;10510;47.942;9.442;2023-06-10T06:13:26;94292.84;;;21.96;100.00
11487;BME280;10510;47.942;9.442;2023-06-10T06:15:26;94290.25;;;22.16;100.00
11487;BME280;10510;47.942;9.442;2023-06-10T06:17:27;94297.22;;;22.33;100.00
11487;BME280;10510;47.942;9.442;2023-06-10T06:19:27;94287.63;;;22.21;100.00
11487;BME280;10510;47.942;9.442;2023-06-10T06:21:27;94288.72;;;22.36;100.00
11487;BME280;10510;47.942;9.442;2023-06-10T06:23:28;94289.78;;;22.40;100.00
11487;BME280;10510;47.942;9.442;2023-06-10T06:25:28;94286.31;;;22.55;100.00
11487;BME280;10510;47.942;9.442;2023-06-10T06:27:28;94287.13;;;22.65;100.00
11487;BME280;10510;47.942;9.442;2023-06-10T06:29:28;94289.25;;;22.74;100.00
11487;BME280;10510;47.942;9.442;2023-06-10T06:31:30;94290.06;;;22.74;100.00
11487;BME280;10510;47.942;9.442;2023-06-10T06:33:30;94291.91;;;22.74;100.00
11487;BME280;10510;47.942;9.442;2023-06-10T06:35:32;94297.75;;;22.76;100.00
11487;BME280;10510;47.942;9.442;2023-06-10T06:37:32;94291.38;;;22.66;100.00
11487;BME280;10510;47.942;9.442;2023-06-10T06:39:32;94300.44;;;22.81;100.00
11487;BME280;10510;47.942;9.442;2023-06-10T06:41:32;94293.50;;;22.90;100.00
11487;BME280;10510;47.942;9.442;2023-06-10T06:43:33;94294.56;;;22.99;100.00
11487;BME280;10510;47.942;9.442;2023-06-10T06:45:34;94288.69;;;23.12;100.00
11487;BME280;10510;47.942;9.442;2023-06-10T06:47:34;94294.81;;;23.18;100.00
11487;BME280;10510;47.942;9.442;2023-06-10T06:49:34;94287.06;;;23.27;100.00
11487;BME280;10510;47.942;9.442;2023-06-10T06:51:34;94295.06;;;23.17;100.00
11487;BME280;10510;47.942;9.442;2023-06-10T06:53:35;94298.28;;;23.13;100.00
11487;BME280;10510;47.942;9.442;2023-06-10T06:55:36;94296.16;;;23.16;100.00
11487;BME280;10510;47.942;9.442;2023-06-10T06:57:37;94296.09;;;23.36;100.00
11487;BME280;10510;47.942;9.442;2023-06-10T06:59:37;94309.38;;;23.56;100.00
11487;BME280;10510;47.942;9.442;2023-06-10T07:01:37;94303.47;;;23.70;100.00
11487;BME280;10510;47.942;9.442;2023-06-10T07:03:38;94301.63;;;23.60;100.00
11487;BME280;10510;47.942;9.442;2023-06-10T07:05:38;94304.00;;;23.67;100.00
11487;BME280;10510;47.942;9.442;2023-06-10T07:07:39;94298.88;;;23.86;100.00
11487;BME280;10510;47.942;9.442;2023-06-10T07:09:39;94296.63;;;24.08;100.00
11487;BME280;10510;47.942;9.442;2023-06-10T07:11:40;94309.72;;;24.05;100.00
11487;BME280;10510;47.942;9.442;2023-06-10T07:13:41;94299.69;;;23.81;100.00
11487;BME280;10510;47.942;9.442;2023-06-10T07:15:41;94300.19;;;23.88;100.00
11487;BME280;10510;47.942;9.442;2023-06-10T07:17:42;94308.59;;;24.16;100.00
11487;BME280;10510;47.942;9.442;2023-06-10T07:19:42;94309.75;;;24.49;100.00
11487;BME280;10510;47.942;9.442;2023-06-10T07:21:42;94308.84;;;24.59;100.00
11487;BME280;10510;47.942;9.442;2023-06-10T07:23:42;94293.69;;;24.54;100.00
11487;BME280;10510;47.942;9.442;2023-06-10T07:25:43;94297.47;;;24.48;100.00
11487;BME280;10510;47.942;9.442;2023-06-10T07:27:43;94304.13;;;24.51;100.00
11487;BME280;10510;47.942;9.442;2023-06-10T07:29:43;94305.47;;;24.53;100.00
11487;BME280;10510;47.942;9.442;2023-06-10T07:31:44;94299.28;;;24.53;100.00
11487;BME280;10510;47.942;9.442;2023-06-10T07:33:44;94301.91;;;24.63;100.00
11487;BME280;10510;47.942;9.442;2023-06-10T07:35:44;94302.16;;;24.96;100.00
11487;BME280;10510;47.942;9.442;2023-06-10T07:37:45;94299.75;;;25.28;100.00
11487;BME280;10510;47.942;9.442;2023-06-10T07:39:45;94296.72;;;25.35;100.00
11487;BME280;10510;47.942;9.442;2023-06-10T07:41:45;94302.00;;;25.64;100.00
11487;BME280;10510;47.942;9.442;2023-06-10T07:43:46;94300.38;;;25.68;100.00
11487;BME280;10510;47.942;9.442;2023-06-10T07:45:46;94294.00;;;25.64;100.00
11487;BME280;10510;47.942;9.442;2023-06-10T07:47:46;94294.13;;;25.54;100.00
11487;BME280;10510;47.942;9.442;2023-06-10T07:49:47;94294.69;;;25.75;100.00
11487;BME280;10510;47.942;9.442;2023-06-10T07:51:47;94291.63;;;25.87;100.00
11487;BME280;10510;47.942;9.442;2023-06-10T07:53:47;94286.84;;;26.02;100.00
11487;BME280;10510;47.942;9.442;2023-06-10T07:55:48;94298.28;;;26.08;100.00
11487;BME280;10510;47.942;9.442;2023-06-10T07:57:48;94292.06;;;26.13;100.00
11487;BME280;10510;47.942;9.442;2023-06-10T07:59:48;94300.25;;;26.21;100.00
11487;BME280;10510;47.942;9.442;2023-06-10T08:01:49;94293.22;;;26.07;100.00
11487;BME280;10510;47.942;9.442;2023-06-10T08:03:49;94293.59;;;26.19;100.00
11487;BME280;10510;47.942;9.442;2023-06-10T08:05:49;94285.41;;;26.48;100.00
11487;BME280;10510;47.942;9.442;2023-06-10T08:07:50;94295.06;;;26.68;100.00
11487;BME280;10510;47.942;9.442;2023-06-10T08:09:50;94297.16;;;26.52;100.00
11487;BME280;10510;47.942;9.442;2023-06-10T08:11:50;94285.00;;;26.22;100.00
11487;BME280;10510;47.942;9.442;2023-06-10T08:13:50;94292.00;;;26.37;100.00
11487;BME280;10510;47.942;9.442;2023-06-10T08:15:51;94289.84;;;26.58;100.00
11487;BME280;10510;47.942;9.442;2023-06-10T08:17:53;94296.06;;;26.72;100.00
11487;BME280;10510;47.942;9.442;2023-06-10T08:19:53;94293.06;;;26.73;100.00
11487;BME280;10510;47.942;9.442;2023-06-10T08:21:54;94299.06;;;26.84;100.00
11487;BME280;10510;47.942;9.442;2023-06-10T08:23:54;94293.50;;;26.81;100.00
11487;BME280;10510;47.942;9.442;2023-06-10T08:25:54;94292.84;;;26.89;100.00
11487;BME280;10510;47.942;9.442;2023-06-10T08:27:55;94296.16;;;27.13;100.00
11487;BME280;10510;47.942;9.442;2023-06-10T08:29:56;94291.66;;;27.28;100.00
11487;BME280;10510;47.942;9.442;2023-06-10T08:31:57;94294.63;;;27.68;100.00
11487;BME280;10510;47.942;9.442;2023-06-10T08:33:57;94298.50;;;27.75;100.00
11487;BME280;10510;47.942;9.442;2023-06-10T08:35:57;94293.94;;;27.76;100.00
11487;BME280;10510;47.942;9.442;2023-06-10T08:37:58;94296.16;;;27.88;100.00
11487;BME280;10510;47.942;9.442;2023-06-10T08:39:58;94303.09;;;28.02;100.00
11487;BME280;10510;47.942;9.442;2023-06-10T08:42:07;94295.84;;;27.89;100.00
11487;BME280;10510;47.942;9.442;2023-06-10T08:44:16;94299.25;;;27.81;100.00
11487;BME280;10510;47.942;9.442;2023-06-10T08:46:20;94296.44;;;27.58;100.00
11487;BME280;10510;47.942;9.442;2023-06-10T08:48:21;94293.75;;;27.45;100.00
11487;BME280;10510;47.942;9.442;2023-06-10T08:50:22;94291.84;;;27.73;100.00
11487;BME280;10510;47.942;9.442;2023-06-10T08:52:24;94300.44;;;27.89;100.00
11487;BME280;10510;47.942;9.442;2023-06-10T08:54:36;94298.81;;;28.01;100.00
11487;BME280;10510;47.942;9.442;2023-06-10T08:56:39;94288.34;;;28.14;100.00
11487;BME280;10510;47.942;9.442;2023-06-10T08:58:40;94287.66;;;28.22;100.00
11487;BME280;10510;47.942;9.442;2023-06-10T09:00:42;94288.88;;;28.38;100.00
11487;BME280;10510;47.942;9.442;2023-06-10T09:02:43;94290.94;;;28.55;100.00
11487;BME280;10510;47.942;9.442;2023-06-10T09:04:44;94284.66;;;28.60;100.00
11487;BME280;10510;47.942;9.442;2023-06-10T09:06:46;94282.94;;;28.64;100.00
11487;BME280;10510;47.942;9.442;2023-06-10T09:08:47;94280.19;;;28.55;100.00
11487;BME280;10510;47.942;9.442;2023-06-10T09:10:47;94285.56;;;28.55;100.00
11487;BME280;10510;47.942;9.442;2023-06-10T09:12:48;94293.88;;;28.67;100.00
11487;BME280;10510;47.942;9.442;2023-06-10T09:14:48;94291.88;;;28.73;100.00
11487;BME280;10510;47.942;9.442;2023-06-10T09:16:48;94284.84;;;28.86;100.00
11487;BME280;10510;47.942;9.442;2023-06-10T09:18:49;94293.56;;;28.91;100.00
11487;BME280;10510;47.942;9.442;2023-06-10T09:20:54;94293.31;;;28.79;100.00
11487;BME280;10510;47.942;9.442;2023-06-10T09:22:55;94289.59;;;28.66;100.00
11487;BME280;10510;47.942;9.442;2023-06-10T09:25:09;94282.56;;;28.79;100.00
11487;BME280;10510;47.942;9.442;2023-06-10T09:27:10;94290.41;;;28.89;100.00
11487;BME280;10510;47.942;9.442;2023-06-10T09:29:10;94288.78;;;28.88;100.00
11487;BME280;10510;47.942;9.442;2023-06-10T09:31:11;94284.34;;;28.84;100.00
11487;BME280;10510;47.942;9.442;2023-06-10T09:33:13;94290.22;;;29.08;100.00
11487;BME280;10510;47.942;9.442;2023-06-10T09:35:15;94279.31;;;29.36;100.00
11487;BME280;10510;47.942;9.442;2023-06-10T09:37:25;94288.31;;;29.71;100.00
11487;BME280;10510;47.942;9.442;2023-06-10T09:39:25;94290.75;;;29.90;100.00
11487;BME280;10510;47.942;9.442;2023-06-10T09:41:33;94288.03;;;29.81;100.00
11487;BME280;10510;47.942;9.442;2023-06-10T09:43:42;94294.69;;;29.13;100.00
11487;BME280;10510;47.942;9.442;2023-06-10T09:45:44;94295.19;;;29.55;100.00
11487;BME280;10510;47.942;9.442;2023-06-10T09:47:46;94291.88;;;29.18;100.00
11487;BME280;10510;47.942;9.442;2023-06-10T09:49:46;94283.06;;;28.59;100.00
11487;BME280;10510;47.942;9.442;2023-06-10T09:51:54;94300.72;;;28.01;100.00
11487;BME280;10510;47.942;9.442;2023-06-10T09:53:55;94293.56;;;27.69;100.00
11487;BME280;10510;47.942;9.442;2023-06-10T09:55:55;94292.44;;;27.28;100.00
11487;BME280;10510;47.942;9.442;2023-06-10T09:57:55;94286.97;;;26.87;100.00
11487;BME280;10510;47.942;9.442;2023-06-10T09:59:55;94282.84;;;26.76;100.00
11487;BME280;10510;47.942;9.442;2023-06-10T10:01:56;94286.78;;;27.30;100.00
11487;BME280;10510;47.942;9.442;2023-06-10T10:03:57;94287.50;;;27.91;100.00
11487;BME280;10510;47.942;9.442;2023-06-10T10:05:59;94292.06;;;28.40;100.00
11487;BME280;10510;47.942;9.442;2023-06-10T10:08:00;94295.72;;;27.94;100.00
11487;BME280;10510;47.942;9.442;2023-06-10T10:10:00;94296.50;;;28.08;100.00
11487;BME280;10510;47.942;9.442;2023-06-10T10:12:02;94299.75;;;28.33;100.00
11487;BME280;10510;47.942;9.442;2023-06-10T10:14:04;94298.72;;;28.57;100.00
11487;BME280;10510;47.942;9.442;2023-06-10T10:16:10;94293.94;;;28.76;100.00
11487;BME280;10510;47.942;9.442;2023-06-10T10:18:14;94292.91;;;28.63;100.00
11487;BME280;10510;47.942;9.442;2023-06-10T10:20:20;94285.84;;;28.17;100.00
11487;BME280;10510;47.942;9.442;2023-06-10T10:22:26;94294.63;;;27.68;100.00
11487;BME280;10510;47.942;9.442;2023-06-10T10:24:33;94291.78;;;27.50;100.00
11487;BME280;10510;47.942;9.442;2023-06-10T10:26:37;94279.53;;;27.30;100.00
11487;BME280;10510;47.942;9.442;2023-06-10T10:28:41;94280.72;;;26.91;100.00
11487;BME280;10510;47.942;9.442;2023-06-10T10:30:53;94280.63;;;26.45;100.00
11487;BME280;10510;47.942;9.442;2023-06-10T10:33:00;94285.25;;;26.20;100.00
11487;BME280;10510;47.942;9.442;2023-06-10T10:35:19;94284.84;;;25.94;100.00